createdAt,value
2022-11-14T00:00:11.892Z,98825.06
2022-11-14T00:05:32.613Z,98830.38
2022-11-14T00:10:53.260Z,98825.06
2022-11-14T00:16:16.974Z,98811.22
2022-11-14T00:21:37.004Z,98812.28
2022-11-14T00:26:58.145Z,98800.06
2022-11-14T00:32:18.559Z,98794.78
2022-11-14T00:37:38.779Z,98793.00
2022-11-14T00:42:59.313Z,98794.38
2022-11-14T00:48:19.406Z,98794.38
2022-11-14T00:53:39.833Z,98795.34
2022-11-14T00:59:00.419Z,98783.25
2022-11-14T01:04:20.750Z,98780.78
2022-11-14T01:09:41.129Z,98779.16
2022-11-14T01:15:01.458Z,98758.63
2022-11-14T01:20:21.842Z,98758.88
2022-11-14T01:25:43.301Z,98750.31
2022-11-14T01:31:14.205Z,98745.16
2022-11-14T01:36:34.423Z,98734.00
2022-11-14T01:41:55.991Z,98728.84
2022-11-14T01:47:30.888Z,98720.16
2022-11-14T01:52:51.189Z,98714.72
2022-11-14T01:58:13.133Z,98702.50
2022-11-14T02:03:37.967Z,98705.78
2022-11-14T02:09:01.368Z,98690.28
2022-11-14T02:14:21.846Z,98671.38
2022-11-14T02:20:02.254Z,98669.63
2022-11-14T02:25:26.318Z,98666.09
2022-11-14T02:30:46.626Z,98662.41
2022-11-14T02:36:07.505Z,98652.78
2022-11-14T02:41:27.760Z,98651.81
2022-11-14T02:46:48.142Z,98649.25
2022-11-14T02:52:08.549Z,98635.91
2022-11-14T02:57:28.619Z,98644.22
2022-11-14T03:02:49.100Z,98651.81
2022-11-14T03:08:09.195Z,98645.56
2022-11-14T03:13:32.742Z,98639.19
2022-11-14T03:18:53.453Z,98633.75
2022-11-14T03:24:13.715Z,98620.84
2022-11-14T03:29:34.336Z,98623.28
2022-11-14T03:34:54.637Z,98610.38
2022-11-14T03:40:14.717Z,98620.69
2022-11-14T03:45:37.543Z,98622.34
2022-11-14T03:50:58.525Z,98604.94
2022-11-14T03:56:18.945Z,98609.00
2022-11-14T04:01:39.503Z,98602.75
2022-11-14T04:06:59.969Z,98588.75
2022-11-14T04:12:20.220Z,98585.06
2022-11-14T04:17:40.914Z,98586.56
2022-11-14T04:23:01.076Z,98572.81
2022-11-14T04:28:21.390Z,98572.81
2022-11-14T04:33:41.714Z,98561.81
2022-11-14T04:39:02.242Z,98552.44
2022-11-14T04:44:22.653Z,98555.28
2022-11-14T04:49:42.958Z,98533.94
2022-11-14T04:55:03.514Z,98536.13
2022-11-14T05:00:25.022Z,98538.16
2022-11-14T05:05:45.691Z,98536.41
2022-11-14T05:11:06.652Z,98540.63
2022-11-14T05:16:26.981Z,98530.97
2022-11-14T05:21:47.380Z,98537.75
2022-11-14T05:27:07.673Z,98536.13
2022-11-14T05:32:28.161Z,98543.06
2022-11-14T05:37:48.491Z,98537.22
2022-11-14T05:43:09.286Z,98530.28
2022-11-14T05:48:31.024Z,98535.59
2022-11-14T05:53:52.507Z,98540.06
2022-11-14T05:59:13.184Z,98543.22
2022-11-14T06:04:33.840Z,98546.06
2022-11-14T06:09:54.338Z,98557.22
2022-11-14T06:15:15.396Z,98567.41
2022-11-14T06:20:37.165Z,98580.47
2022-11-14T06:26:02.405Z,98578.00
2022-11-14T06:31:24.442Z,98578.81
2022-11-14T06:36:44.702Z,98587.25
2022-11-14T06:42:05.245Z,98598.41
2022-11-14T06:47:25.685Z,98590.25
2022-11-14T06:52:45.858Z,98585.63
2022-11-14T06:58:06.138Z,98586.03
2022-11-14T07:03:26.654Z,98598.66
2022-11-14T07:08:47.680Z,98597.44
2022-11-14T07:14:09.784Z,98593.78
2022-11-14T07:19:30.431Z,98591.03
2022-11-14T07:24:50.916Z,98590.78
2022-11-14T07:30:12.264Z,98593.09
2022-11-14T07:35:32.299Z,98588.19
2022-11-14T07:40:59.967Z,98588.16
2022-11-14T07:46:20.949Z,98584.88
2022-11-14T07:51:41.427Z,98585.03
2022-11-14T07:57:01.781Z,98584.19
2022-11-14T08:02:21.958Z,98582.66
2022-11-14T08:07:42.990Z,98584.25
2022-11-14T08:18:46.291Z,98594.66
2022-11-14T08:24:06.885Z,98593.41
2022-11-14T08:29:27.220Z,98603.63
2022-11-14T08:34:48.196Z,98606.66
2022-11-14T08:40:11.129Z,98588.53
2022-11-14T08:45:31.535Z,98585.91
2022-11-14T08:50:52.086Z,98585.72
2022-11-14T08:56:12.437Z,98587.00
2022-11-14T09:01:33.175Z,98577.00
2022-11-14T09:06:53.718Z,98576.44
2022-11-14T09:12:14.292Z,98589.75
2022-11-14T09:17:35.410Z,98579.47
2022-11-14T09:22:58.948Z,98578.28
2022-11-14T09:28:19.447Z,98564.81
2022-11-14T09:33:40.529Z,98569.47
2022-11-14T09:39:01.140Z,98550.00
2022-11-14T09:44:21.689Z,98545.78
2022-11-14T09:49:45.637Z,98528.31
2022-11-14T09:55:17.644Z,98528.00
2022-11-14T10:01:07.895Z,98534.50
2022-11-14T10:06:35.305Z,98533.56
2022-11-14T10:12:41.106Z,98525.47
2022-11-14T10:18:23.760Z,98533.09
2022-11-14T10:24:18.456Z,98525.16
2022-11-14T10:29:44.974Z,98528.44
2022-11-14T10:35:24.590Z,98518.72
2022-11-14T10:40:48.460Z,98509.00
2022-11-14T10:46:19.855Z,98512.78
2022-11-14T10:51:47.052Z,98496.09
2022-11-14T10:57:22.493Z,98489.78
2022-11-14T11:02:54.862Z,98495.13
2022-11-14T11:08:43.801Z,98490.91
2022-11-14T11:14:05.189Z,98496.75
2022-11-14T11:19:27.709Z,98479.56
2022-11-14T11:24:48.198Z,98472.31
2022-11-14T11:30:26.484Z,98472.00
2022-11-14T11:35:50.529Z,98460.50
2022-11-14T11:41:42.413Z,98467.47
2022-11-14T11:47:05.027Z,98464.88
2022-11-14T11:52:44.467Z,98473.47
2022-11-14T11:58:12.105Z,98461.31
2022-11-14T12:03:32.508Z,98463.75
2022-11-14T12:09:06.824Z,98464.41
2022-11-14T12:14:29.879Z,98456.63
2022-11-14T12:20:02.334Z,98441.22
2022-11-14T12:25:35.289Z,98442.03
2022-11-14T12:31:03.725Z,98432.63
2022-11-14T12:36:30.482Z,98438.63
2022-11-14T12:41:50.851Z,98437.81
2022-11-14T12:47:20.331Z,98443.00
2022-11-14T12:52:40.768Z,98427.44
2022-11-14T12:58:32.861Z,98427.44
2022-11-14T13:04:16.088Z,98420.63
2022-11-14T13:10:14.076Z,98408.34
2022-11-14T13:16:06.041Z,98414.63
2022-11-14T13:21:46.246Z,98420.34
2022-11-14T13:28:06.015Z,98420.34
2022-11-14T13:33:43.056Z,98424.03
2022-11-14T13:39:07.057Z,98429.53
2022-11-14T13:44:33.400Z,98428.88
2022-11-14T13:50:14.450Z,98430.00
2022-11-14T13:55:55.103Z,98421.06
2022-11-14T14:01:28.317Z,98419.59
2022-11-14T14:06:54.712Z,98417.31
2022-11-14T14:12:24.159Z,98412.75
2022-11-14T14:17:56.785Z,98406.25
2022-11-14T14:23:29.381Z,98395.06
2022-11-14T14:29:06.313Z,98390.69
2022-11-14T14:34:32.122Z,98391.66
2022-11-14T14:40:35.721Z,98383.38
2022-11-14T14:45:56.462Z,98403.13
2022-11-14T14:51:30.610Z,98411.34
2022-11-14T14:57:03.585Z,98390.72
2022-11-14T15:02:26.064Z,98396.22
2022-11-14T15:07:49.584Z,98387.41
2022-11-14T15:13:15.928Z,98377.53
2022-11-14T15:18:37.780Z,98374.72
2022-11-14T15:24:19.898Z,98381.03
2022-11-14T15:29:53.390Z,98380.34
2022-11-14T15:35:24.940Z,98385.19
2022-11-14T15:41:10.747Z,98381.28
2022-11-14T15:46:40.822Z,98378.31
2022-11-14T15:52:03.817Z,98383.78
2022-11-14T15:57:24.656Z,98385.72
2022-11-14T16:02:49.635Z,98390.91
2022-11-14T16:08:14.152Z,98384.09
2022-11-14T16:13:34.897Z,98384.41
2022-11-14T16:18:55.455Z,98374.03
2022-11-14T16:24:22.509Z,98381.16
2022-11-14T16:29:42.876Z,98376.78
2022-11-14T16:35:03.566Z,98379.53
2022-11-14T16:40:27.873Z,98372.06
2022-11-14T16:45:48.524Z,98373.00
2022-11-14T16:51:33.007Z,98371.91
2022-11-14T16:56:50.146Z,98376.28
2022-11-14T17:02:21.073Z,98379.97
2022-11-14T17:07:41.430Z,98373.47
2022-11-14T17:13:01.745Z,98374.88
2022-11-14T17:18:22.126Z,98376.13
2022-11-14T17:23:42.329Z,98385.16
2022-11-14T17:29:04.121Z,98377.53
2022-11-14T17:34:24.699Z,98376.72
2022-11-14T17:39:45.168Z,98369.94
2022-11-14T17:45:05.983Z,98375.25
2022-11-14T17:50:26.504Z,98376.06
2022-11-14T17:55:47.143Z,98375.56
2022-11-14T18:01:16.895Z,98381.97
2022-11-14T18:06:37.206Z,98379.69
2022-11-14T18:11:57.801Z,98377.91
2022-11-14T18:17:18.679Z,98377.25
2022-11-14T18:22:38.984Z,98372.38
2022-11-14T18:27:59.240Z,98361.81
2022-11-14T18:33:19.579Z,98363.19
2022-11-14T18:38:41.264Z,98370.16
2022-11-14T18:44:03.775Z,98364.97
2022-11-14T18:49:24.307Z,98366.91
2022-11-14T18:54:44.923Z,98356.69
2022-11-14T19:00:05.981Z,98351.97
2022-11-14T19:05:25.958Z,98347.38
2022-11-14T19:10:46.784Z,98343.59
2022-11-14T19:16:07.718Z,98341.28
2022-11-14T19:21:28.912Z,98337.06
2022-11-14T19:26:50.201Z,98334.63
2022-11-14T19:32:10.223Z,98333.81
2022-11-14T19:37:30.649Z,98320.22
2022-11-14T19:42:53.824Z,98321.19
2022-11-14T19:48:14.569Z,98323.78
2022-11-14T19:53:36.915Z,98321.34
2022-11-14T19:58:57.329Z,98324.88
2022-11-14T20:04:17.584Z,98330.03
2022-11-14T20:09:38.159Z,98322.44
2022-11-14T20:14:58.803Z,98330.63
2022-11-14T20:20:19.570Z,98319.75
2022-11-14T20:25:40.582Z,98336.59
2022-11-14T20:31:02.723Z,98341.78
2022-11-14T20:36:26.118Z,98324.13
2022-11-14T20:41:46.772Z,98315.47
2022-11-14T20:47:10.977Z,98321.22
2022-11-14T20:52:31.835Z,98331.59
2022-11-14T20:57:52.417Z,98333.38
2022-11-14T21:03:12.708Z,98325.75
2022-11-14T21:08:34.911Z,98316.66
2022-11-14T21:14:01.740Z,98304.19
2022-11-14T21:19:22.841Z,98301.22
2022-11-14T21:24:43.438Z,98306.81
2022-11-14T21:30:04.323Z,98304.53
2022-11-14T21:35:24.806Z,98296.09
2022-11-14T21:40:54.431Z,98300.44
2022-11-14T21:46:18.526Z,98313.59
2022-11-14T21:51:39.085Z,98308.97
2022-11-14T21:56:59.515Z,98304.47
2022-11-14T22:02:38.180Z,98301.22
2022-11-14T22:07:58.542Z,98300.84
2022-11-14T22:13:19.043Z,98290.94
2022-11-14T22:18:38.966Z,98291.50
2022-11-14T22:23:59.618Z,98305.66
2022-11-14T22:29:20.043Z,98312.72
2022-11-14T22:34:40.294Z,98309.47
2022-11-14T22:40:00.749Z,98309.63
2022-11-14T22:45:21.427Z,98302.16
2022-11-14T22:50:41.477Z,98309.38
2022-11-14T22:56:02.916Z,98295.78
2022-11-14T23:01:31.837Z,98298.66
2022-11-14T23:06:52.020Z,98300.56
2022-11-14T23:12:12.129Z,98296.50
2022-11-14T23:17:32.650Z,98296.78
2022-11-14T23:22:53.047Z,98289.31
2022-11-14T23:28:13.360Z,98307.66
2022-11-14T23:33:33.894Z,98305.22
2022-11-14T23:38:55.349Z,98292.31
2022-11-14T23:44:15.791Z,98294.91
2022-11-14T23:49:35.873Z,98288.94
2022-11-14T23:54:56.068Z,98292.59
